sensor_id;sensor_type;location;lat;lon;timestamp;P1;durP1;ratioP1;P2;durP2;ratioP2
4603;SDS011;2314;48.272;11.562;2023-09-30T00:01:45;26.73;;;9.13;;
4603;SDS011;2314;48.272;11.562;2023-09-30T00:04:12;23.73;;;9.00;;
4603;SDS011;2314;48.272;11.562;2023-09-30T00:06:41;20.23;;;8.33;;
4603;SDS011;2314;48.272;11.562;2023-09-30T00:09:08;29.63;;;10.10;;
4603;SDS011;2314;48.272;11.562;2023-09-30T00:11:36;22.90;;;8.97;;
4603;SDS011;2314;48.272;11.562;2023-09-30T00:14:03;27.70;;;11.13;;
4603;SDS011;2314;48.272;11.562;2023-09-30T00:16:31;25.00;;;8.80;;
4603;SDS011;2314;48.272;11.562;2023-09-30T00:18:58;23.90;;;8.30;;
4603;SDS011;2314;48.272;11.562;2023-09-30T00:21:27;22.97;;;8.80;;
4603;SDS011;2314;48.272;11.562;2023-09-30T00:23:55;23.10;;;9.60;;
4603;SDS011;2314;48.272;11.562;2023-09-30T00:26:22;24.77;;;9.47;;
4603;SDS011;2314;48.272;11.562;2023-09-30T00:28:49;21.97;;;9.00;;
4603;SDS011;2314;48.272;11.562;2023-09-30T00:31:16;28.03;;;9.30;;
4603;SDS011;2314;48.272;11.562;2023-09-30T00:33:43;21.20;;;8.30;;
4603;SDS011;2314;48.272;11.562;2023-09-30T00:36:10;23.37;;;8.30;;
4603;SDS011;2314;48.272;11.562;2023-09-30T00:38:37;24.90;;;9.60;;
4603;SDS011;2314;48.272;11.562;2023-09-30T00:41:06;24.57;;;9.60;;
4603;SDS011;2314;48.272;11.562;2023-09-30T00:43:33;23.80;;;8.53;;
4603;SDS011;2314;48.272;11.562;2023-09-30T00:46:02;29.10;;;9.93;;
4603;SDS011;2314;48.272;11.562;2023-09-30T00:48:33;21.67;;;10.10;;
4603;SDS011;2314;48.272;11.562;2023-09-30T00:51:00;23.03;;;9.70;;
4603;SDS011;2314;48.272;11.562;2023-09-30T00:53:27;26.87;;;9.90;;
4603;SDS011;2314;48.272;11.562;2023-09-30T00:55:55;34.77;;;10.97;;
4603;SDS011;2314;48.272;11.562;2023-09-30T00:58:25;26.60;;;10.67;;
4603;SDS011;2314;48.272;11.562;2023-09-30T01:00:55;27.13;;;10.53;;
4603;SDS011;2314;48.272;11.562;2023-09-30T01:03:23;33.73;;;11.90;;
4603;SDS011;2314;48.272;11.562;2023-09-30T01:05:50;32.47;;;11.90;;
4603;SDS011;2314;48.272;11.562;2023-09-30T01:08:18;29.33;;;9.87;;
4603;SDS011;2314;48.272;11.562;2023-09-30T01:10:46;31.53;;;9.97;;
4603;SDS011;2314;48.272;11.562;2023-09-30T01:13:13;24.30;;;9.00;;
4603;SDS011;2314;48.272;11.562;2023-09-30T01:15:42;28.27;;;9.80;;
4603;SDS011;2314;48.272;11.562;2023-09-30T01:18:09;28.70;;;8.97;;
4603;SDS011;2314;48.272;11.562;2023-09-30T01:20:36;29.60;;;10.07;;
4603;SDS011;2314;48.272;11.562;2023-09-30T01:23:05;24.53;;;9.47;;
4603;SDS011;2314;48.272;11.562;2023-09-30T01:25:32;25.10;;;8.63;;
4603;SDS011;2314;48.272;11.562;2023-09-30T01:28:07;27.40;;;9.90;;
4603;SDS011;2314;48.272;11.562;2023-09-30T01:30:35;21.90;;;9.40;;
4603;SDS011;2314;48.272;11.562;2023-09-30T01:33:02;23.70;;;10.37;;
4603;SDS011;2314;48.272;11.562;2023-09-30T01:35:30;25.40;;;9.50;;
4603;SDS011;2314;48.272;11.562;2023-09-30T01:37:57;26.03;;;10.73;;
4603;SDS011;2314;48.272;11.562;2023-09-30T01:40:25;26.63;;;10.27;;
4603;SDS011;2314;48.272;11.562;2023-09-30T01:42:52;28.27;;;10.80;;
4603;SDS011;2314;48.272;11.562;2023-09-30T01:45:19;23.07;;;8.90;;
4603;SDS011;2314;48.272;11.562;2023-09-30T01:47:46;22.67;;;9.80;;
4603;SDS011;2314;48.272;11.562;2023-09-30T01:50:13;28.83;;;11.20;;
4603;SDS011;2314;48.272;11.562;2023-09-30T01:52:40;29.43;;;10.90;;
4603;SDS011;2314;48.272;11.562;2023-09-30T01:55:07;27.40;;;10.70;;
4603;SDS011;2314;48.272;11.562;2023-09-30T01:57:37;24.37;;;8.67;;
4603;SDS011;2314;48.272;11.562;2023-09-30T02:00:05;27.07;;;10.80;;
4603;SDS011;2314;48.272;11.562;2023-09-30T02:02:34;25.70;;;8.80;;
4603;SDS011;2314;48.272;11.562;2023-09-30T02:05:01;21.80;;;8.47;;
4603;SDS011;2314;48.272;11.562;2023-09-30T02:07:30;23.50;;;8.60;;
4603;SDS011;2314;48.272;11.562;2023-09-30T02:09:57;24.77;;;9.67;;
4603;SDS011;2314;48.272;11.562;2023-09-30T02:12:24;23.03;;;9.13;;
4603;SDS011;2314;48.272;11.562;2023-09-30T02:14:54;24.83;;;9.43;;
4603;SDS011;2314;48.272;11.562;2023-09-30T02:17:21;28.23;;;10.40;;
4603;SDS011;2314;48.272;11.562;2023-09-30T02:19:48;27.43;;;9.63;;
4603;SDS011;2314;48.272;11.562;2023-09-30T02:22:15;23.73;;;9.40;;
4603;SDS011;2314;48.272;11.562;2023-09-30T02:24:43;26.80;;;9.50;;
4603;SDS011;2314;48.272;11.562;2023-09-30T02:27:10;26.27;;;10.47;;
4603;SDS011;2314;48.272;11.562;2023-09-30T02:29:37;21.47;;;9.53;;
4603;SDS011;2314;48.272;11.562;2023-09-30T02:32:05;26.57;;;10.07;;
4603;SDS011;2314;48.272;11.562;2023-09-30T02:34:33;28.90;;;11.47;;
4603;SDS011;2314;48.272;11.562;2023-09-30T02:37:00;35.53;;;10.70;;
4603;SDS011;2314;48.272;11.562;2023-09-30T02:39:27;25.17;;;10.47;;
4603;SDS011;2314;48.272;11.562;2023-09-30T02:41:54;30.03;;;11.60;;
4603;SDS011;2314;48.272;11.562;2023-09-30T02:44:21;29.13;;;10.27;;
4603;SDS011;2314;48.272;11.562;2023-09-30T02:46:48;31.97;;;11.87;;
4603;SDS011;2314;48.272;11.562;2023-09-30T02:49:17;31.23;;;10.70;;
4603;SDS011;2314;48.272;11.562;2023-09-30T02:51:44;36.90;;;12.30;;
4603;SDS011;2314;48.272;11.562;2023-09-30T02:54:11;26.63;;;11.73;;
4603;SDS011;2314;48.272;11.562;2023-09-30T02:56:40;33.17;;;11.30;;
4603;SDS011;2314;48.272;11.562;2023-09-30T02:59:07;29.67;;;12.10;;
4603;SDS011;2314;48.272;11.562;2023-09-30T03:01:34;28.67;;;11.40;;
4603;SDS011;2314;48.272;11.562;2023-09-30T03:04:02;32.97;;;11.93;;
4603;SDS011;2314;48.272;11.562;2023-09-30T03:06:33;33.10;;;11.20;;
4603;SDS011;2314;48.272;11.562;2023-09-30T03:09:02;30.33;;;11.80;;
4603;SDS011;2314;48.272;11.562;2023-09-30T03:11:30;28.00;;;11.20;;
4603;SDS011;2314;48.272;11.562;2023-09-30T03:13:57;28.77;;;11.30;;
4603;SDS011;2314;48.272;11.562;2023-09-30T03:16:24;31.93;;;11.47;;
4603;SDS011;2314;48.272;11.562;2023-09-30T03:18:51;29.80;;;11.60;;
4603;SDS011;2314;48.272;11.562;2023-09-30T03:21:20;29.00;;;10.87;;
4603;SDS011;2314;48.272;11.562;2023-09-30T03:23:49;28.00;;;12.20;;
4603;SDS011;2314;48.272;11.562;2023-09-30T03:26:16;30.87;;;11.10;;
4603;SDS011;2314;48.272;11.562;2023-09-30T03:28:45;33.00;;;11.90;;
4603;SDS011;2314;48.272;11.562;2023-09-30T03:31:12;31.70;;;11.33;;
4603;SDS011;2314;48.272;11.562;2023-09-30T03:33:39;33.40;;;12.80;;
4603;SDS011;2314;48.272;11.562;2023-09-30T03:36:08;27.07;;;11.03;;
4603;SDS011;2314;48.272;11.562;2023-09-30T03:38:36;27.30;;;11.27;;
4603;SDS011;2314;48.272;11.562;2023-09-30T03:41:05;28.67;;;11.73;;
4603;SDS011;2314;48.272;11.562;2023-09-30T03:43:33;27.47;;;11.13;;
4603;SDS011;2314;48.272;11.562;2023-09-30T03:46:05;25.90;;;9.30;;
4603;SDS011;2314;48.272;11.562;2023-09-30T03:48:32;30.37;;;12.50;;
4603;SDS011;2314;48.272;11.562;2023-09-30T03:51:07;35.03;;;11.90;;
4603;SDS011;2314;48.272;11.562;2023-09-30T03:53:38;29.93;;;11.60;;
4603;SDS011;2314;48.272;11.562;2023-09-30T03:56:08;36.80;;;12.83;;
4603;SDS011;2314;48.272;11.562;2023-09-30T03:58:36;28.93;;;11.67;;
4603;SDS011;2314;48.272;11.562;2023-09-30T04:01:03;31.00;;;11.90;;
4603;SDS011;2314;48.272;11.562;2023-09-30T04:03:30;31.10;;;11.40;;
4603;SDS011;2314;48.272;11.562;2023-09-30T04:05:58;27.67;;;10.90;;
4603;SDS011;2314;48.272;11.562;2023-09-30T04:08:25;30.57;;;11.20;;
4603;SDS011;2314;48.272;11.562;2023-09-30T04:10:52;28.63;;;10.83;;
4603;SDS011;2314;48.272;11.562;2023-09-30T04:13:21;28.27;;;10.27;;
4603;SDS011;2314;48.272;11.562;2023-09-30T04:15:48;28.37;;;11.43;;
4603;SDS011;2314;48.272;11.562;2023-09-30T04:18:16;30.00;;;11.73;;
4603;SDS011;2314;48.272;11.562;2023-09-30T04:20:45;24.23;;;10.40;;
4603;SDS011;2314;48.272;11.562;2023-09-30T04:23:12;26.13;;;10.67;;
4603;SDS011;2314;48.272;11.562;2023-09-30T04:25:40;24.80;;;10.70;;
4603;SDS011;2314;48.272;11.562;2023-09-30T04:28:08;34.63;;;12.80;;
4603;SDS011;2314;48.272;11.562;2023-09-30T04:30:36;29.33;;;10.83;;
4603;SDS011;2314;48.272;11.562;2023-09-30T04:33:04;29.63;;;11.47;;
4603;SDS011;2314;48.272;11.562;2023-09-30T04:35:31;26.57;;;11.10;;
4603;SDS011;2314;48.272;11.562;2023-09-30T04:38:00;28.07;;;10.20;;
4603;SDS011;2314;48.272;11.562;2023-09-30T04:40:29;28.43;;;11.20;;
4603;SDS011;2314;48.272;11.562;2023-09-30T04:42:58;29.10;;;9.40;;
4603;SDS011;2314;48.272;11.562;2023-09-30T04:45:25;24.70;;;9.93;;
4603;SDS011;2314;48.272;11.562;2023-09-30T04:47:53;30.13;;;11.37;;
4603;SDS011;2314;48.272;11.562;2023-09-30T04:50:22;24.53;;;10.43;;
4603;SDS011;2314;48.272;11.562;2023-09-30T04:52:49;32.00;;;10.17;;
4603;SDS011;2314;48.272;11.562;2023-09-30T04:55:17;29.73;;;11.37;;
4603;SDS011;2314;48.272;11.562;2023-09-30T04:57:44;26.70;;;11.07;;
4603;SDS011;2314;48.272;11.562;2023-09-30T05:00:13;26.40;;;11.20;;
4603;SDS011;2314;48.272;11.562;2023-09-30T05:02:42;26.40;;;9.97;;
4603;SDS011;2314;48.272;11.562;2023-09-30T05:05:11;33.70;;;12.10;;
4603;SDS011;2314;48.272;11.562;2023-09-30T05:07:39;31.77;;;11.80;;
4603;SDS011;2314;48.272;11.562;2023-09-30T05:10:07;32.47;;;11.60;;
4603;SDS011;2314;48.272;11.562;2023-09-30T05:12:38;31.30;;;11.20;;
4603;SDS011;2314;48.272;11.562;2023-09-30T05:15:06;29.37;;;10.47;;
4603;SDS011;2314;48.272;11.562;2023-09-30T05:17:35;29.03;;;11.00;;
4603;SDS011;2314;48.272;11.562;2023-09-30T05:20:03;28.87;;;11.83;;
4603;SDS011;2314;48.272;11.562;2023-09-30T05:22:33;27.60;;;10.87;;
4603;SDS011;2314;48.272;11.562;2023-09-30T05:25:00;24.97;;;10.80;;
4603;SDS011;2314;48.272;11.562;2023-09-30T05:27:28;28.23;;;11.10;;
4603;SDS011;2314;48.272;11.562;2023-09-30T05:29:55;27.93;;;11.43;;
4603;SDS011;2314;48.272;11.562;2023-09-30T05:32:22;31.10;;;11.57;;
4603;SDS011;2314;48.272;11.562;2023-09-30T05:34:51;28.57;;;11.63;;
4603;SDS011;2314;48.272;11.562;2023-09-30T05:37:20;29.70;;;10.10;;
4603;SDS011;2314;48.272;11.562;2023-09-30T05:39:49;31.93;;;11.57;;
4603;SDS011;2314;48.272;11.562;2023-09-30T05:42:16;32.43;;;11.77;;
4603;SDS011;2314;48.272;11.562;2023-09-30T05:44:44;28.97;;;10.50;;
4603;SDS011;2314;48.272;11.562;2023-09-30T05:47:11;27.80;;;11.43;;
4603;SDS011;2314;48.272;11.562;2023-09-30T05:49:38;28.23;;;11.47;;
4603;SDS011;2314;48.272;11.562;2023-09-30T05:52:06;30.97;;;12.10;;
4603;SDS011;2314;48.272;11.562;2023-09-30T05:54:33;32.93;;;12.17;;
4603;SDS011;2314;48.272;11.562;2023-09-30T05:57:03;26.30;;;9.63;;
4603;SDS011;2314;48.272;11.562;2023-09-30T05:59:30;35.83;;;12.47;;
4603;SDS011;2314;48.272;11.562;2023-09-30T06:01:57;28.27;;;12.00;;
4603;SDS011;2314;48.272;11.562;2023-09-30T06:04:24;29.07;;;11.37;;
4603;SDS011;2314;48.272;11.562;2023-09-30T06:06:52;26.73;;;11.60;;
4603;SDS011;2314;48.272;11.562;2023-09-30T06:09:19;29.40;;;11.20;;
4603;SDS011;2314;48.272;11.562;2023-09-30T06:11:50;24.93;;;9.40;;
4603;SDS011;2314;48.272;11.562;2023-09-30T06:14:18;29.23;;;11.53;;
4603;SDS011;2314;48.272;11.562;2023-09-30T06:16:45;22.47;;;9.53;;
4603;SDS011;2314;48.272;11.562;2023-09-30T06:19:12;30.03;;;12.00;;
4603;SDS011;2314;48.272;11.562;2023-09-30T06:21:39;41.73;;;11.80;;
4603;SDS011;2314;48.272;11.562;2023-09-30T06:24:07;27.93;;;9.53;;
4603;SDS011;2314;48.272;11.562;2023-09-30T06:26:34;28.63;;;9.73;;
4603;SDS011;2314;48.272;11.562;2023-09-30T06:29:01;23.47;;;9.70;;
4603;SDS011;2314;48.272;11.562;2023-09-30T06:31:30;19.83;;;8.20;;
4603;SDS011;2314;48.272;11.562;2023-09-30T06:33:57;24.87;;;8.87;;
4603;SDS011;2314;48.272;11.562;2023-09-30T06:36:25;26.50;;;9.50;;
4603;SDS011;2314;48.272;11.562;2023-09-30T06:38:52;19.37;;;8.20;;
4603;SDS011;2314;48.272;11.562;2023-09-30T06:41:19;24.43;;;9.63;;
4603;SDS011;2314;48.272;11.562;2023-09-30T06:43:47;24.33;;;9.27;;
4603;SDS011;2314;48.272;11.562;2023-09-30T06:46:16;22.70;;;9.00;;
4603;SDS011;2314;48.272;11.562;2023-09-30T06:48:45;26.20;;;9.17;;
4603;SDS011;2314;48.272;11.562;2023-09-30T06:51:13;24.73;;;9.17;;
4603;SDS011;2314;48.272;11.562;2023-09-30T06:53:42;22.97;;;8.40;;
4603;SDS011;2314;48.272;11.562;2023-09-30T06:56:10;16.20;;;7.77;;
4603;SDS011;2314;48.272;11.562;2023-09-30T06:58:38;19.17;;;7.90;;
4603;SDS011;2314;48.272;11.562;2023-09-30T07:01:05;18.07;;;7.50;;
4603;SDS011;2314;48.272;11.562;2023-09-30T07:03:32;28.97;;;9.13;;
4603;SDS011;2314;48.272;11.562;2023-09-30T07:06:01;17.30;;;6.47;;
4603;SDS011;2314;48.272;11.562;2023-09-30T07:08:28;12.90;;;6.27;;
4603;SDS011;2314;48.272;11.562;2023-09-30T07:10:56;12.17;;;6.23;;
4603;SDS011;2314;48.272;11.562;2023-09-30T07:13:23;15.30;;;6.00;;
4603;SDS011;2314;48.272;11.562;2023-09-30T07:15:50;15.10;;;6.70;;
4603;SDS011;2314;48.272;11.562;2023-09-30T07:18:17;16.10;;;5.97;;
4603;SDS011;2314;48.272;11.562;2023-09-30T07:20:44;15.80;;;5.90;;
4603;SDS011;2314;48.272;11.562;2023-09-30T07:23:12;10.37;;;4.67;;
4603;SDS011;2314;48.272;11.562;2023-09-30T07:25:40;14.00;;;5.60;;
4603;SDS011;2314;48.272;11.562;2023-09-30T07:28:10;15.23;;;6.57;;
4603;SDS011;2314;48.272;11.562;2023-09-30T07:30:38;19.63;;;6.20;;
4603;SDS011;2314;48.272;11.562;2023-09-30T07:33:06;11.50;;;4.63;;
4603;SDS011;2314;48.272;11.562;2023-09-30T07:35:33;13.17;;;5.90;;
4603;SDS011;2314;48.272;11.562;2023-09-30T07:38:00;15.40;;;6.10;;
4603;SDS011;2314;48.272;11.562;2023-09-30T07:40:31;12.97;;;5.30;;
4603;SDS011;2314;48.272;11.562;2023-09-30T07:42:58;10.10;;;4.73;;
4603;SDS011;2314;48.272;11.562;2023-09-30T07:45:25;15.83;;;5.87;;
4603;SDS011;2314;48.272;11.562;2023-09-30T07:47:53;12.43;;;4.83;;
4603;SDS011;2314;48.272;11.562;2023-09-30T07:50:20;12.73;;;4.70;;
4603;SDS011;2314;48.272;11.562;2023-09-30T07:52:47;12.27;;;5.10;;
4603;SDS011;2314;48.272;11.562;2023-09-30T07:55:15;11.33;;;5.57;;
4603;SDS011;2314;48.272;11.562;2023-09-30T07:57:43;11.67;;;5.47;;
4603;SDS011;2314;48.272;11.562;2023-09-30T08:00:11;13.90;;;5.27;;
4603;SDS011;2314;48.272;11.562;2023-09-30T08:02:41;11.13;;;4.50;;
4603;SDS011;2314;48.272;11.562;2023-09-30T08:05:08;13.07;;;5.80;;
4603;SDS011;2314;48.272;11.562;2023-09-30T08:07:37;12.80;;;5.53;;
4603;SDS011;2314;48.272;11.562;2023-09-30T08:10:04;8.70;;;4.00;;
4603;SDS011;2314;48.272;11.562;2023-09-30T08:12:37;16.80;;;5.30;;
4603;SDS011;2314;48.272;11.562;2023-09-30T08:15:06;14.40;;;4.80;;
4603;SDS011;2314;48.272;11.562;2023-09-30T08:17:36;11.37;;;4.30;;
4603;SDS011;2314;48.272;11.562;2023-09-30T08:20:04;12.23;;;5.40;;
4603;SDS011;2314;48.272;11.562;2023-09-30T08:22:33;9.80;;;4.17;;
4603;SDS011;2314;48.272;11.562;2023-09-30T08:25:00;11.23;;;4.30;;
4603;SDS011;2314;48.272;11.562;2023-09-30T08:27:27;11.30;;;4.33;;
4603;SDS011;2314;48.272;11.562;2023-09-30T08:29:54;13.03;;;4.90;;
4603;SDS011;2314;48.272;11.562;2023-09-30T08:32:22;10.80;;;4.70;;
4603;SDS011;2314;48.272;11.562;2023-09-30T08:34:50;7.40;;;3.27;;
4603;SDS011;2314;48.272;11.562;2023-09-30T08:37:17;10.67;;;3.90;;
4603;SDS011;2314;48.272;11.562;2023-09-30T08:39:44;10.00;;;3.43;;
4603;SDS011;2314;48.272;11.562;2023-09-30T08:42:11;10.20;;;3.17;;
4603;SDS011;2314;48.272;11.562;2023-09-30T08:44:39;16.10;;;4.40;;
4603;SDS011;2314;48.272;11.562;2023-09-30T08:47:06;9.67;;;3.60;;
4603;SDS011;2314;48.272;11.562;2023-09-30T08:49:37;8.50;;;3.50;;
4603;SDS011;2314;48.272;11.562;2023-09-30T08:52:05;8.27;;;2.93;;
4603;SDS011;2314;48.272;11.562;2023-09-30T08:54:33;13.33;;;3.83;;
4603;SDS011;2314;48.272;11.562;2023-09-30T08:57:00;7.87;;;3.40;;
4603;SDS011;2314;48.272;11.562;2023-09-30T08:59:29;9.83;;;3.67;;
4603;SDS011;2314;48.272;11.562;2023-09-30T09:01:58;7.87;;;3.03;;
4603;SDS011;2314;48.272;11.562;2023-09-30T09:04:25;8.13;;;2.70;;
4603;SDS011;2314;48.272;11.562;2023-09-30T09:06:54;9.33;;;3.47;;
4603;SDS011;2314;48.272;11.562;2023-09-30T09:09:22;7.03;;;3.20;;
4603;SDS011;2314;48.272;11.562;2023-09-30T09:11:49;7.70;;;3.30;;
4603;SDS011;2314;48.272;11.562;2023-09-30T09:14:17;7.57;;;3.17;;
4603;SDS011;2314;48.272;11.562;2023-09-30T09:16:53;7.33;;;3.63;;
4603;SDS011;2314;48.272;11.562;2023-09-30T09:19:22;6.90;;;2.80;;
4603;SDS011;2314;48.272;11.562;2023-09-30T09:21:57;8.03;;;2.80;;
4603;SDS011;2314;48.272;11.562;2023-09-30T09:24:32;6.07;;;2.73;;
4603;SDS011;2314;48.272;11.562;2023-09-30T09:27:04;8.70;;;3.37;;
4603;SDS011;2314;48.272;11.562;2023-09-30T09:29:35;9.70;;;4.00;;
4603;SDS011;2314;48.272;11.562;2023-09-30T09:32:06;8.37;;;3.30;;
4603;SDS011;2314;48.272;11.562;2023-09-30T09:34:37;8.27;;;3.13;;
4603;SDS011;2314;48.272;11.562;2023-09-30T09:37:13;7.50;;;3.47;;
4603;SDS011;2314;48.272;11.562;2023-09-30T09:39:51;12.07;;;3.10;;
4603;SDS011;2314;48.272;11.562;2023-09-30T09:42:24;6.37;;;3.27;;
4603;SDS011;2314;48.272;11.562;2023-09-30T09:44:54;8.97;;;3.57;;
4603;SDS011;2314;48.272;11.562;2023-09-30T09:47:23;5.90;;;3.00;;
4603;SDS011;2314;48.272;11.562;2023-09-30T09:49:52;5.83;;;2.20;;
4603;SDS011;2314;48.272;11.562;2023-09-30T09:52:20;6.87;;;2.90;;
4603;SDS011;2314;48.272;11.562;2023-09-30T09:54:48;7.33;;;3.73;;
4603;SDS011;2314;48.272;11.562;2023-09-30T09:57:17;6.67;;;2.80;;
4603;SDS011;2314;48.272;11.562;2023-09-30T09:59:45;7.03;;;2.80;;
4603;SDS011;2314;48.272;11.562;2023-09-30T10:02:14;5.43;;;2.50;;
4603;SDS011;2314;48.272;11.562;2023-09-30T10:04:43;6.90;;;3.50;;
4603;SDS011;2314;48.272;11.562;2023-09-30T10:07:12;9.33;;;2.50;;
4603;SDS011;2314;48.272;11.562;2023-09-30T10:09:49;7.10;;;3.17;;
4603;SDS011;2314;48.272;11.562;2023-09-30T10:12:19;5.90;;;2.37;;
4603;SDS011;2314;48.272;11.562;2023-09-30T10:14:46;8.90;;;3.77;;
4603;SDS011;2314;48.272;11.562;2023-09-30T10:17:13;8.37;;;3.20;;
4603;SDS011;2314;48.272;11.562;2023-09-30T10:22:31;6.53;;;2.30;;
4603;SDS011;2314;48.272;11.562;2023-09-30T10:25:01;8.20;;;2.57;;
4603;SDS011;2314;48.272;11.562;2023-09-30T10:28:00;6.10;;;2.63;;
4603;SDS011;2314;48.272;11.562;2023-09-30T10:31:08;6.03;;;2.30;;
4603;SDS011;2314;48.272;11.562;2023-09-30T10:33:38;7.20;;;2.50;;
4603;SDS011;2314;48.272;11.562;2023-09-30T10:36:46;9.80;;;3.10;;
4603;SDS011;2314;48.272;11.562;2023-09-30T10:39:52;6.80;;;2.73;;
4603;SDS011;2314;48.272;11.562;2023-09-30T10:51:16;6.60;;;3.00;;
4603;SDS011;2314;48.272;11.562;2023-09-30T10:53:49;5.70;;;3.13;;
4603;SDS011;2314;48.272;11.562;2023-09-30T10:56:18;7.13;;;2.97;;
4603;SDS011;2314;48.272;11.562;2023-09-30T10:58:49;6.90;;;3.50;;
4603;SDS011;2314;48.272;11.562;2023-09-30T11:01:18;8.73;;;3.23;;
4603;SDS011;2314;48.272;11.562;2023-09-30T11:03:46;7.00;;;3.03;;
4603;SDS011;2314;48.272;11.562;2023-09-30T11:06:16;7.10;;;2.67;;
4603;SDS011;2314;48.272;11.562;2023-09-30T11:08:48;8.90;;;3.00;;
4603;SDS011;2314;48.272;11.562;2023-09-30T11:14:01;9.80;;;3.67;;
4603;SDS011;2314;48.272;11.562;2023-09-30T11:16:39;7.30;;;3.30;;
4603;SDS011;2314;48.272;11.562;2023-09-30T11:19:08;7.83;;;3.33;;
4603;SDS011;2314;48.272;11.562;2023-09-30T11:21:35;7.23;;;3.00;;
4603;SDS011;2314;48.272;11.562;2023-09-30T11:24:02;8.23;;;3.50;;
4603;SDS011;2314;48.272;11.562;2023-09-30T11:26:31;9.97;;;4.10;;
4603;SDS011;2314;48.272;11.562;2023-09-30T11:29:05;7.00;;;3.77;;
4603;SDS011;2314;48.272;11.562;2023-09-30T11:31:36;9.60;;;3.60;;
4603;SDS011;2314;48.272;11.562;2023-09-30T11:34:04;13.60;;;3.90;;
4603;SDS011;2314;48.272;11.562;2023-09-30T11:36:33;10.00;;;3.80;;
4603;SDS011;2314;48.272;11.562;2023-09-30T11:39:01;10.50;;;4.57;;
4603;SDS011;2314;48.272;11.562;2023-09-30T11:41:32;10.37;;;3.97;;
4603;SDS011;2314;48.272;11.562;2023-09-30T11:44:03;8.40;;;4.03;;
4603;SDS011;2314;48.272;11.562;2023-09-30T11:46:46;9.63;;;4.30;;
4603;SDS011;2314;48.272;11.562;2023-09-30T11:49:23;8.00;;;4.00;;
4603;SDS011;2314;48.272;11.562;2023-09-30T11:51:53;14.10;;;6.47;;
4603;SDS011;2314;48.272;11.562;2023-09-30T11:54:20;11.63;;;4.90;;
4603;SDS011;2314;48.272;11.562;2023-09-30T11:56:48;13.97;;;5.90;;
4603;SDS011;2314;48.272;11.562;2023-09-30T11:59:18;14.80;;;5.70;;
4603;SDS011;2314;48.272;11.562;2023-09-30T12:01:47;12.77;;;5.27;;
4603;SDS011;2314;48.272;11.562;2023-09-30T12:04:14;13.70;;;5.10;;
4603;SDS011;2314;48.272;11.562;2023-09-30T12:06:44;13.43;;;5.50;;
4603;SDS011;2314;48.272;11.562;2023-09-30T12:09:12;14.93;;;6.10;;
4603;SDS011;2314;48.272;11.562;2023-09-30T12:11:40;14.30;;;5.83;;
4603;SDS011;2314;48.272;11.562;2023-09-30T12:14:09;10.60;;;4.70;;
4603;SDS011;2314;48.272;11.562;2023-09-30T12:16:40;14.57;;;5.10;;
4603;SDS011;2314;48.272;11.562;2023-09-30T12:19:10;13.10;;;6.50;;
4603;SDS011;2314;48.272;11.562;2023-09-30T12:21:38;12.53;;;5.70;;
4603;SDS011;2314;48.272;11.562;2023-09-30T12:24:05;14.50;;;6.00;;
4603;SDS011;2314;48.272;11.562;2023-09-30T12:26:34;13.33;;;5.80;;
4603;SDS011;2314;48.272;11.562;2023-09-30T12:29:03;14.90;;;6.63;;
4603;SDS011;2314;48.272;11.562;2023-09-30T12:31:30;14.70;;;6.80;;
4603;SDS011;2314;48.272;11.562;2023-09-30T12:34:00;13.90;;;6.50;;
4603;SDS011;2314;48.272;11.562;2023-09-30T12:36:27;14.23;;;6.30;;
4603;SDS011;2314;48.272;11.562;2023-09-30T12:38:54;16.17;;;6.73;;
4603;SDS011;2314;48.272;11.562;2023-09-30T12:41:21;12.70;;;5.60;;
4603;SDS011;2314;48.272;11.562;2023-09-30T12:43:48;15.77;;;6.30;;
4603;SDS011;2314;48.272;11.562;2023-09-30T12:46:15;14.90;;;5.67;;
4603;SDS011;2314;48.272;11.562;2023-09-30T12:48:43;16.57;;;6.43;;
4603;SDS011;2314;48.272;11.562;2023-09-30T12:51:12;13.57;;;5.90;;
4603;SDS011;2314;48.272;11.562;2023-09-30T12:53:39;12.43;;;6.00;;
4603;SDS011;2314;48.272;11.562;2023-09-30T12:56:07;11.57;;;5.27;;
4603;SDS011;2314;48.272;11.562;2023-09-30T12:58:34;16.87;;;5.97;;
4603;SDS011;2314;48.272;11.562;2023-09-30T13:01:03;14.10;;;5.40;;
4603;SDS011;2314;48.272;11.562;2023-09-30T13:03:31;13.20;;;6.07;;
4603;SDS011;2314;48.272;11.562;2023-09-30T13:05:58;12.60;;;5.30;;
4603;SDS011;2314;48.272;11.562;2023-09-30T13:08:26;12.10;;;5.27;;
4603;SDS011;2314;48.272;11.562;2023-09-30T13:10:58;12.43;;;5.50;;
4603;SDS011;2314;48.272;11.562;2023-09-30T13:13:27;16.47;;;5.73;;
4603;SDS011;2314;48.272;11.562;2023-09-30T13:15:54;18.97;;;6.20;;
4603;SDS011;2314;48.272;11.562;2023-09-30T13:18:21;15.67;;;6.60;;
4603;SDS011;2314;48.272;11.562;2023-09-30T13:20:48;12.97;;;5.20;;
4603;SDS011;2314;48.272;11.562;2023-09-30T13:23:17;11.87;;;5.40;;
4603;SDS011;2314;48.272;11.562;2023-09-30T13:25:46;13.67;;;5.57;;
4603;SDS011;2314;48.272;11.562;2023-09-30T13:28:13;12.03;;;4.90;;
4603;SDS011;2314;48.272;11.562;2023-09-30T13:30:40;14.43;;;6.20;;
4603;SDS011;2314;48.272;11.562;2023-09-30T13:33:07;14.83;;;5.40;;
4603;SDS011;2314;48.272;11.562;2023-09-30T13:35:34;12.47;;;5.27;;
4603;SDS011;2314;48.272;11.562;2023-09-30T13:38:02;11.43;;;5.40;;
4603;SDS011;2314;48.272;11.562;2023-09-30T13:40:29;15.30;;;5.87;;
4603;SDS011;2314;48.272;11.562;2023-09-30T13:42:58;13.03;;;5.60;;
4603;SDS011;2314;48.272;11.562;2023-09-30T13:45:25;12.83;;;5.30;;
4603;SDS011;2314;48.272;11.562;2023-09-30T13:47:53;11.80;;;5.57;;
4603;SDS011;2314;48.272;11.562;2023-09-30T13:50:20;15.87;;;5.90;;
4603;SDS011;2314;48.272;11.562;2023-09-30T13:52:47;14.17;;;6.17;;
4603;SDS011;2314;48.272;11.562;2023-09-30T13:55:14;19.43;;;6.07;;
4603;SDS011;2314;48.272;11.562;2023-09-30T13:57:44;15.50;;;5.20;;
4603;SDS011;2314;48.272;11.562;2023-09-30T14:00:13;15.93;;;6.57;;
4603;SDS011;2314;48.272;11.562;2023-09-30T14:02:41;18.20;;;6.83;;
4603;SDS011;2314;48.272;11.562;2023-09-30T14:05:09;19.07;;;6.17;;
4603;SDS011;2314;48.272;11.562;2023-09-30T14:07:38;16.23;;;6.43;;
4603;SDS011;2314;48.272;11.562;2023-09-30T14:10:06;17.33;;;6.80;;
4603;SDS011;2314;48.272;11.562;2023-09-30T14:12:35;15.07;;;6.70;;
4603;SDS011;2314;48.272;11.562;2023-09-30T14:15:02;15.47;;;6.90;;
4603;SDS011;2314;48.272;11.562;2023-09-30T14:17:32;15.77;;;6.60;;
4603;SDS011;2314;48.272;11.562;2023-09-30T14:20:00;24.60;;;8.60;;
4603;SDS011;2314;48.272;11.562;2023-09-30T14:22:27;15.77;;;7.07;;
4603;SDS011;2314;48.272;11.562;2023-09-30T14:24:54;18.77;;;8.40;;
4603;SDS011;2314;48.272;11.562;2023-09-30T14:27:21;13.83;;;6.30;;
4603;SDS011;2314;48.272;11.562;2023-09-30T14:29:48;18.60;;;7.97;;
4603;SDS011;2314;48.272;11.562;2023-09-30T14:32:15;19.33;;;7.60;;
4603;SDS011;2314;48.272;11.562;2023-09-30T14:34:44;17.30;;;6.90;;
4603;SDS011;2314;48.272;11.562;2023-09-30T14:37:11;15.23;;;6.40;;
4603;SDS011;2314;48.272;11.562;2023-09-30T14:39:39;20.77;;;7.20;;
4603;SDS011;2314;48.272;11.562;2023-09-30T14:42:06;17.07;;;7.90;;
4603;SDS011;2314;48.272;11.562;2023-09-30T14:44:33;17.33;;;6.97;;
4603;SDS011;2314;48.272;11.562;2023-09-30T14:47:01;16.20;;;6.57;;
4603;SDS011;2314;48.272;11.562;2023-09-30T14:49:30;20.47;;;8.00;;
4603;SDS011;2314;48.272;11.562;2023-09-30T14:51:58;15.57;;;7.07;;
4603;SDS011;2314;48.272;11.562;2023-09-30T14:54:25;15.90;;;6.50;;
4603;SDS011;2314;48.272;11.562;2023-09-30T14:56:52;16.13;;;6.80;;
4603;SDS011;2314;48.272;11.562;2023-09-30T14:59:19;17.90;;;7.50;;
4603;SDS011;2314;48.272;11.562;2023-09-30T15:01:46;13.80;;;6.10;;
4603;SDS011;2314;48.272;11.562;2023-09-30T15:04:13;16.60;;;6.47;;
4603;SDS011;2314;48.272;11.562;2023-09-30T15:06:50;15.90;;;7.03;;
4603;SDS011;2314;48.272;11.562;2023-09-30T15:09:27;16.37;;;6.53;;